Time;durP1;ratioP1;P1;durP2;ratioP2;P2;SDS_P1;SDS_P2;PMS_P1;PMS_P2;Temp;Humidity;BMP_temperature;BMP_pressure;BME280_temperature;BME280_humidity;BME280_pressure;Samples;Min_cycle;Max_cycle;Signal;HPM_P1;HPM_P2
2022/09/18 00:01:57;;;;;;;;;;;;;;;10.92;79.77;100595.19;4976715;28;19968;-75
2022/09/18 00:05:00;;;;;;;;;;;;;;;11.06;79.12;100593.59;4977036;28;19942;-75
2022/09/18 00:08:03;;;;;;;;;;;;;;;11.09;79.06;100585.59;4976842;28;19925;-75
2022/09/18 00:11:09;;;;;;;;;;;;;;;11.05;79.38;100590.16;4976710;28;19920;-75
2022/09/18 00:14:14;;;;;;;;;;;;;;;10.99;78.84;100585.25;4976599;28;20452;-75
2022/09/18 00:17:17;;;;;;;;;;;;;;;11.37;78.01;100585.78;4976498;28;19925;-75
2022/09/18 00:20:21;;;;;;;;;;;;;;;11.16;79.31;100592.19;4976461;28;19941;-75
2022/09/18 00:23:24;;;;;;;;;;;;;;;11.13;79.22;100592.34;4976438;28;19936;-75
2022/09/18 00:26:27;;;;;;;;;;;;;;;10.85;79.80;100596.44;4976401;28;19920;-74
2022/09/18 00:29:31;;;;;;;;;;;;;;;10.91;79.49;100588.28;4976680;28;19921;-75
2022/09/18 00:32:35;;;;;;;;;;;;;;;10.85;79.79;100593.81;4975259;28;19936;-75
2022/09/18 00:35:42;;;;;;;;;;;;;;;10.81;79.78;100588.81;4964306;28;20099;-75
2022/09/18 00:38:46;;;;;;;;;;;;;;;10.96;80.01;100589.78;4976442;28;19921;-75
2022/09/18 00:41:50;;;;;;;;;;;;;;;11.17;79.71;100594.72;4976120;28;19921;-75
2022/09/18 00:44:53;;;;;;;;;;;;;;;10.99;79.91;100590.47;4964104;28;19937;-75
2022/09/18 00:47:57;;;;;;;;;;;;;;;11.04;79.79;100582.38;4976348;28;19921;-75
2022/09/18 00:51:00;;;;;;;;;;;;;;;11.09;80.08;100590.81;4964489;28;19972;-75
2022/09/18 00:54:13;;;;;;;;;;;;;;;11.19;79.66;100589.41;4975849;28;19969;-75
2022/09/18 00:57:20;;;;;;;;;;;;;;;11.23;78.99;100590.94;4964025;28;19925;-75
2022/09/18 01:00:24;;;;;;;;;;;;;;;11.48;77.66;100581.72;4975795;28;19968;-75
2022/09/18 01:03:28;;;;;;;;;;;;;;;11.27;78.43;100581.16;4968090;28;19957;-75
2022/09/18 01:06:45;;;;;;;;;;;;;;;11.26;79.00;100587.28;4955589;28;19925;-75
2022/09/18 01:09:57;;;;;;;;;;;;;;;11.35;77.97;100579.78;4956733;28;19921;-75
2022/09/18 01:13:23;;;;;;;;;;;;;;;11.12;78.06;100586.28;4956159;28;19921;-75
2022/09/18 01:16:30;;;;;;;;;;;;;;;11.32;78.45;100582.56;4956583;28;19925;-75
2022/09/18 01:19:46;;;;;;;;;;;;;;;11.08;78.26;100590.00;4955280;28;19965;-75
2022/09/18 01:23:08;;;;;;;;;;;;;;;11.09;78.25;100580.34;4955622;28;19945;-75
2022/09/18 01:26:20;;;;;;;;;;;;;;;11.37;78.12;100577.09;4956357;28;19969;-75
2022/09/18 01:29:26;;;;;;;;;;;;;;;11.19;78.51;100581.56;4955098;28;19980;-75
2022/09/18 01:32:42;;;;;;;;;;;;;;;11.31;78.50;100580.88;4955704;28;20031;-75
2022/09/18 01:35:49;;;;;;;;;;;;;;;11.35;78.03;100584.19;4955211;28;19961;-75
2022/09/18 01:39:06;;;;;;;;;;;;;;;11.43;77.66;100579.38;4954950;28;19921;-75
2022/09/18 01:42:11;;;;;;;;;;;;;;;11.53;77.67;100574.50;4954891;28;20397;-75
2022/09/18 01:45:18;;;;;;;;;;;;;;;11.49;78.20;100572.97;4955207;28;19968;-75
2022/09/18 01:48:29;;;;;;;;;;;;;;;11.38;78.53;100571.75;4954635;28;19925;-75
2022/09/18 01:51:41;;;;;;;;;;;;;;;11.35;78.05;100579.78;4954655;28;19921;-75
2022/09/18 01:54:47;;;;;;;;;;;;;;;11.22;78.05;100577.94;4954970;29;19920;-75
2022/09/18 01:57:57;;;;;;;;;;;;;;;11.47;79.02;100573.03;4954671;28;19973;-75
2022/09/18 02:01:04;;;;;;;;;;;;;;;11.52;78.38;100578.00;4954794;28;19920;-75
2022/09/18 02:04:10;;;;;;;;;;;;;;;11.25;78.40;100581.22;4954399;28;19985;-75
2022/09/18 02:07:25;;;;;;;;;;;;;;;11.11;78.66;100578.53;4943787;28;20004;-75
2022/09/18 02:10:32;;;;;;;;;;;;;;;11.14;78.84;100579.19;4954474;28;20301;-75
2022/09/18 02:13:41;;;;;;;;;;;;;;;11.36;78.37;100573.66;4954367;28;20364;-74
2022/09/18 02:16:51;;;;;;;;;;;;;;;11.26;77.78;100585.50;4954532;28;19969;-75
2022/09/18 02:20:04;;;;;;;;;;;;;;;11.07;78.25;100584.81;4954619;28;19978;-75
2022/09/18 02:23:08;;;;;;;;;;;;;;;10.97;78.32;100575.78;4954107;28;20291;-75
2022/09/18 02:26:13;;;;;;;;;;;;;;;11.09;78.27;100582.97;4954943;28;19929;-75
2022/09/18 02:29:20;;;;;;;;;;;;;;;10.94;78.25;100580.25;4954411;28;19997;-75
2022/09/18 02:32:23;;;;;;;;;;;;;;;11.01;78.07;100572.06;4953963;28;19922;-75
2022/09/18 02:35:35;;;;;;;;;;;;;;;11.11;77.19;100570.66;4953953;29;19934;-75
2022/09/18 02:38:45;;;;;;;;;;;;;;;11.02;78.18;100568.53;4954792;28;19977;-75
2022/09/18 02:41:49;;;;;;;;;;;;;;;11.37;77.28;100577.09;4954239;28;19925;-75
2022/09/18 02:44:56;;;;;;;;;;;;;;;11.38;77.23;100570.94;4953997;28;20301;-75
2022/09/18 02:48:11;;;;;;;;;;;;;;;11.11;78.45;100575.91;4953765;28;19936;-75
2022/09/18 02:51:31;;;;;;;;;;;;;;;10.97;78.72;100570.53;4954062;29;20297;-75
2022/09/18 02:54:44;;;;;;;;;;;;;;;10.96;78.76;100561.84;4953760;28;19942;-75
2022/09/18 02:57:51;;;;;;;;;;;;;;;10.99;78.83;100553.00;4953869;28;20013;-75
2022/09/18 03:00:56;;;;;;;;;;;;;;;10.85;79.20;100567.66;4953787;28;19969;-75
2022/09/18 03:04:05;;;;;;;;;;;;;;;11.03;79.61;100551.91;4953465;28;19922;-75
2022/09/18 03:07:20;;;;;;;;;;;;;;;10.90;80.07;100562.19;4953887;28;20465;-75
2022/09/18 03:10:26;;;;;;;;;;;;;;;10.87;80.32;100562.34;4953714;28;19969;-74
2022/09/18 03:13:29;;;;;;;;;;;;;;;10.84;80.31;100557.28;4953490;28;20029;-75
2022/09/18 03:16:33;;;;;;;;;;;;;;;10.92;80.11;100558.56;4954406;28;19925;-75
2022/09/18 03:19:36;;;;;;;;;;;;;;;10.90;79.94;100560.41;4953623;28;19937;-75
2022/09/18 03:22:40;;;;;;;;;;;;;;;10.75;80.55;100555.97;4953833;28;19921;-75
2022/09/18 03:25:50;;;;;;;;;;;;;;;10.88;80.18;100559.66;4953510;28;19921;-75
2022/09/18 03:28:53;;;;;;;;;;;;;;;10.88;79.86;100549.19;4953182;28;20349;-75
2022/09/18 03:31:57;;;;;;;;;;;;;;;10.82;80.25;100562.59;4953304;28;20009;-75
2022/09/18 03:35:00;;;;;;;;;;;;;;;11.01;80.20;100558.97;4953393;28;19921;-75
2022/09/18 03:38:04;;;;;;;;;;;;;;;10.88;79.94;100562.28;4953419;28;19925;-74
2022/09/18 03:41:08;;;;;;;;;;;;;;;10.90;79.93;100560.41;4953455;28;19965;-75
2022/09/18 03:44:14;;;;;;;;;;;;;;;10.88;80.13;100562.28;4953630;28;19921;-75
2022/09/18 03:47:19;;;;;;;;;;;;;;;10.85;80.20;100554.59;4953244;28;19926;-75
2022/09/18 03:50:24;;;;;;;;;;;;;;;10.84;79.97;100558.09;4953338;29;19976;-75
2022/09/18 03:53:28;;;;;;;;;;;;;;;10.88;80.18;100562.28;4953259;28;19921;-75
2022/09/18 03:56:44;;;;;;;;;;;;;;;10.81;79.97;100555.66;4953234;28;20428;-75
2022/09/18 03:59:46;;;;;;;;;;;;;;;10.74;80.46;100559.53;4954448;28;20281;-75
2022/09/18 04:03:16;;;;;;;;;;;;;;;10.96;79.67;100559.25;4959923;28;19921;-75
2022/09/18 04:06:51;;;;;;;;;;;;;;;10.83;80.75;100552.97;4973300;28;19928;-75
2022/09/18 04:10:32;;;;;;;;;;;;;;;10.69;80.65;100556.31;4916981;29;19974;-75
2022/09/18 04:13:36;;;;;;;;;;;;;;;10.77;80.21;100558.53;4916949;29;19955;-75
2022/09/18 04:16:45;;;;;;;;;;;;;;;10.89;80.22;100553.50;4964412;28;19925;-75
2022/09/18 04:19:49;;;;;;;;;;;;;;;10.83;80.69;100564.28;4976921;28;19921;-75
2022/09/18 04:22:53;;;;;;;;;;;;;;;10.85;80.08;100567.66;4963901;28;19937;-75
2022/09/18 04:25:59;;;;;;;;;;;;;;;10.84;79.84;100565.94;4976993;28;19986;-75
2022/09/18 04:29:07;;;;;;;;;;;;;;;10.98;79.61;100565.25;4964849;28;20022;-75
2022/09/18 04:32:12;;;;;;;;;;;;;;;11.07;80.08;100566.50;4964667;28;19921;-75
2022/09/18 04:35:17;;;;;;;;;;;;;;;11.00;78.77;100565.16;4976557;28;19942;-75
2022/09/18 04:38:26;;;;;;;;;;;;;;;10.85;79.50;100562.44;4964469;28;19925;-75
2022/09/18 04:41:29;;;;;;;;;;;;;;;10.87;79.50;100554.50;4964221;28;19968;-75
2022/09/18 04:44:34;;;;;;;;;;;;;;;10.91;79.72;100559.50;4964419;28;19960;-75
2022/09/18 04:47:37;;;;;;;;;;;;;;;10.80;79.67;100563.59;4964188;28;19977;-75
2022/09/18 04:50:42;;;;;;;;;;;;;;;10.68;80.23;100562.47;4964305;28;19925;-75
2022/09/18 04:53:51;;;;;;;;;;;;;;;10.57;80.61;100557.78;4963853;28;19976;-75
2022/09/18 04:56:55;;;;;;;;;;;;;;;10.61;80.58;100563.72;4964240;28;19972;-75
2022/09/18 04:59:58;;;;;;;;;;;;;;;10.56;80.92;100565.69;4963784;28;19968;-75
2022/09/18 05:03:02;;;;;;;;;;;;;;;10.75;80.28;100552.50;4975495;28;19985;-75
2022/09/18 05:06:08;;;;;;;;;;;;;;;10.75;80.20;100550.75;4963926;28;19964;-75
2022/09/18 05:09:11;;;;;;;;;;;;;;;10.70;80.13;100560.63;4963697;28;19921;-74
2022/09/18 05:12:15;;;;;;;;;;;;;;;10.64;80.85;100567.00;4975830;28;19969;-75
2022/09/18 05:15:19;;;;;;;;;;;;;;;10.67;80.91;100563.38;4963471;28;19925;-75
2022/09/18 05:18:25;;;;;;;;;;;;;;;10.63;80.54;100577.56;4963194;28;19921;-75
2022/09/18 05:21:31;;;;;;;;;;;;;;;10.68;80.41;100570.31;4963371;28;19961;-74
2022/09/18 05:24:34;;;;;;;;;;;;;;;10.73;80.14;100563.06;4975330;28;20340;-74
2022/09/18 05:27:38;;;;;;;;;;;;;;;10.64;80.40;100559.16;4963432;28;20289;-75
2022/09/18 05:30:42;;;;;;;;;;;;;;;10.77;80.20;100572.44;4962819;28;20319;-75
2022/09/18 05:33:46;;;;;;;;;;;;;;;10.75;80.06;100582.13;4958569;28;19920;-75
2022/09/18 05:36:50;;;;;;;;;;;;;;;10.77;79.72;100575.06;4951075;28;19925;-75
2022/09/18 05:39:56;;;;;;;;;;;;;;;10.81;79.75;100567.88;4958995;28;19964;-75
2022/09/18 05:43:01;;;;;;;;;;;;;;;10.76;79.71;100573.38;4960265;28;19980;-75
2022/09/18 05:46:07;;;;;;;;;;;;;;;10.76;79.97;100573.38;4981021;28;19964;-75
2022/09/18 05:49:43;;;;;;;;;;;;;;;10.93;79.13;100568.09;4970723;28;19979;-75
2022/09/18 05:52:47;;;;;;;;;;;;;;;10.95;78.91;100578.50;4970317;28;19920;-75
2022/09/18 05:55:51;;;;;;;;;;;;;;;10.88;80.05;100580.59;4958266;28;20019;-75
2022/09/18 05:58:57;;;;;;;;;;;;;;;11.07;79.23;100587.44;4958405;28;19956;-75
2022/09/18 06:02:03;;;;;;;;;;;;;;;10.91;79.91;100587.41;4970589;28;19972;-75
2022/09/18 06:05:32;;;;;;;;;;;;;;;10.92;80.56;100582.09;4970556;28;20057;-75
2022/09/18 06:08:35;;;;;;;;;;;;;;;10.96;80.77;100585.41;4958981;28;20371;-75
2022/09/18 06:11:39;;;;;;;;;;;;;;;10.96;81.67;100581.94;4961040;28;19975;-75
2022/09/18 06:14:43;;;;;;;;;;;;;;;11.02;81.75;100576.38;4975856;28;21229;-75
2022/09/18 06:17:50;;;;;;;;;;;;;;;10.98;82.61;100582.72;4983994;28;20428;-75
2022/09/18 06:20:58;;;;;;;;;;;;;;;10.84;82.11;100579.03;4954763;28;20201;-75
2022/09/18 06:24:04;;;;;;;;;;;;;;;11.00;82.46;100581.69;4958956;28;20555;-75
2022/09/18 06:27:16;;;;;;;;;;;;;;;10.91;82.27;100583.03;4958652;28;20089;-75
2022/09/18 06:30:20;;;;;;;;;;;;;;;10.89;82.63;100584.03;4957550;28;20292;-75
2022/09/18 06:33:24;;;;;;;;;;;;;;;11.02;82.90;100584.25;4949355;28;20061;-75
2022/09/18 06:36:28;;;;;;;;;;;;;;;11.14;83.15;100594.91;4938418;28;19969;-75
2022/09/18 06:39:54;;;;;;;;;;;;;;;11.17;85.25;100592.13;4951070;28;20389;-75
2022/09/18 06:43:17;;;;;;;;;;;;;;;10.92;85.68;100589.94;4951077;28;20326;-75
2022/09/18 06:50:50;;;;;;;;;;;;;;;10.91;86.00;100583.03;4969519;28;19998;-74
2022/09/18 06:53:55;;;;;;;;;;;;;;;11.11;86.64;100587.22;4957631;28;20300;-74
2022/09/18 06:56:59;;;;;;;;;;;;;;;11.10;86.59;100587.28;4957067;28;19929;-74
2022/09/18 07:00:05;;;;;;;;;;;;;;;11.02;85.79;100592.09;4967343;28;19968;-76
2022/09/18 07:03:13;;;;;;;;;;;;;;;10.96;86.64;100587.19;4973572;28;20284;-75
2022/09/18 07:06:35;;;;;;;;;;;;;;;10.94;85.21;100592.47;4980012;28;20476;-75
2022/09/18 07:09:39;;;;;;;;;;;;;;;10.76;86.79;100599.53;4976712;28;19980;-75
2022/09/18 07:12:55;;;;;;;;;;;;;;;10.96;86.89;100592.41;4977174;28;20133;-76
2022/09/18 07:15:59;;;;;;;;;;;;;;;11.00;87.16;100601.78;4938614;28;19949;-75
2022/09/18 07:19:05;;;;;;;;;;;;;;;10.89;85.90;100607.59;4938182;28;19969;-76
2022/09/18 07:22:08;;;;;;;;;;;;;;;10.99;85.92;100602.72;4937719;28;19922;-75
2022/09/18 07:25:17;;;;;;;;;;;;;;;11.02;85.99;100599.94;4938102;28;20378;-75
2022/09/18 07:28:20;;;;;;;;;;;;;;;11.10;86.31;100587.28;4949166;28;19956;-76
2022/09/18 07:31:36;;;;;;;;;;;;;;;11.04;86.06;100592.81;4976284;28;19920;-76
2022/09/18 07:34:41;;;;;;;;;;;;;;;11.02;85.96;100598.16;4976413;28;19989;-75
2022/09/18 07:37:48;;;;;;;;;;;;;;;11.14;86.50;100601.91;4988441;28;20057;-75
2022/09/18 07:41:03;;;;;;;;;;;;;;;11.15;85.48;100600.97;4965716;28;20328;-75
2022/09/18 07:44:11;;;;;;;;;;;;;;;11.16;85.46;100607.88;4990652;28;19921;-75
2022/09/18 07:47:20;;;;;;;;;;;;;;;11.09;85.73;100612.59;4980630;28;19936;-75
2022/09/18 07:50:24;;;;;;;;;;;;;;;11.08;84.43;100594.38;4979965;28;19921;-75
2022/09/18 07:53:29;;;;;;;;;;;;;;;11.23;84.52;100587.47;4962055;28;19968;-75
2022/09/18 07:56:35;;;;;;;;;;;;;;;11.42;83.16;100593.38;4961761;28;19972;-75
2022/09/18 07:59:39;;;;;;;;;;;;;;;11.35;84.11;100592.88;4980669;28;20421;-75
2022/09/18 08:02:44;;;;;;;;;;;;;;;11.36;83.92;100593.75;4980199;28;19964;-75
2022/09/18 08:05:57;;;;;;;;;;;;;;;11.49;83.92;100593.91;4964624;28;20280;-75
2022/09/18 08:09:00;;;;;;;;;;;;;;;11.38;82.97;100594.50;4960543;28;19995;-75
2022/09/18 08:12:23;;;;;;;;;;;;;;;11.33;83.95;100586.91;4985483;28;19923;-75
2022/09/18 08:15:40;;;;;;;;;;;;;;;11.44;83.86;100590.69;4991676;28;20451;-75
2022/09/18 08:19:02;;;;;;;;;;;;;;;11.63;82.92;100573.03;4980568;28;19921;-75
2022/09/18 08:22:38;;;;;;;;;;;;;;;11.65;82.43;100589.53;4968360;28;19925;-75
2022/09/18 08:25:42;;;;;;;;;;;;;;;11.57;81.80;100582.06;4978621;28;19960;-75
2022/09/18 08:28:46;;;;;;;;;;;;;;;11.53;83.14;100582.34;4991231;28;19975;-75
2022/09/18 08:31:51;;;;;;;;;;;;;;;11.76;83.05;100573.19;4979106;28;19921;-75
2022/09/18 08:34:54;;;;;;;;;;;;;;;11.67;82.64;100577.16;4961603;28;19937;-75
2022/09/18 08:37:59;;;;;;;;;;;;;;;11.67;84.09;100577.16;4964651;28;19940;-75
2022/09/18 08:41:41;;;;;;;;;;;;;;;11.42;85.11;100582.91;4958854;28;19921;-75
2022/09/18 08:45:03;;;;;;;;;;;;;;;11.44;84.89;100575.81;4952140;28;19922;-75
2022/09/18 08:48:14;;;;;;;;;;;;;;;11.40;84.27;100575.16;4597216;28;9999685;-74
2022/09/18 08:51:29;;;;;;;;;;;;;;;11.62;84.80;100584.44;4951503;28;19968;-75
2022/09/18 08:54:39;;;;;;;;;;;;;;;11.81;82.85;100581.66;4971306;28;19925;-74
2022/09/18 08:58:25;;;;;;;;;;;;;;;11.69;82.84;100583.19;4981736;28;19924;-75
2022/09/18 09:01:39;;;;;;;;;;;;;;;11.91;83.17;100587.25;4979670;28;19963;-75
2022/09/18 09:04:46;;;;;;;;;;;;;;;11.88;81.09;100577.78;4968431;28;19999;-75
2022/09/18 09:07:49;;;;;;;;;;;;;;;11.98;80.95;100576.31;4979221;28;19968;-74
2022/09/18 09:11:09;;;;;;;;;;;;;;;11.97;80.09;100584.28;4979299;28;19964;-74
2022/09/18 09:14:31;;;;;;;;;;;;;;;12.07;79.13;100580.19;4979163;28;19964;-75
2022/09/18 09:17:46;;;;;;;;;;;;;;;12.21;79.38;100590.72;4978688;28;20008;-75
2022/09/18 09:20:54;;;;;;;;;;;;;;;12.29;78.17;100575.38;4979431;28;19920;-75
2022/09/18 09:24:20;;;;;;;;;;;;;;;12.27;78.16;100582.50;4959678;28;20324;-75
2022/09/18 09:28:18;;;;;;;;;;;;;;;12.08;79.24;100587.13;4961697;28;19920;-75
2022/09/18 09:31:46;;;;;;;;;;;;;;;11.82;79.97;100586.78;4971198;28;19977;-75
2022/09/18 09:39:17;;;;;;;;;;;;;;;12.01;82.63;100594.47;4958764;28;19976;-75
2022/09/18 09:42:28;;;;;;;;;;;;;;;12.00;81.70;100594.59;4959564;28;19925;-75
2022/09/18 09:45:52;;;;;;;;;;;;;;;11.85;82.45;100596.28;4959891;28;19936;-75
2022/09/18 09:49:04;;;;;;;;;;;;;;;11.75;83.89;100602.94;4958639;28;20005;-75
2022/09/18 09:52:07;;;;;;;;;;;;;;;11.90;82.55;100591.66;4974003;28;19968;-75
2022/09/18 09:55:18;;;;;;;;;;;;;;;11.74;83.53;100591.63;4989126;28;19921;-75
2022/09/18 09:58:40;;;;;;;;;;;;;;;11.74;84.23;100594.25;4977754;28;19932;-76
2022/09/18 10:02:27;;;;;;;;;;;;;;;11.74;86.09;100599.50;4972504;28;19921;-76
2022/09/18 10:05:37;;;;;;;;;;;;;;;11.66;84.69;100601.69;4968207;28;20309;-76
2022/09/18 10:08:41;;;;;;;;;;;;;;;11.52;85.52;100609.44;4972249;28;19968;-76
2022/09/18 10:11:51;;;;;;;;;;;;;;;11.64;85.03;100595.66;4959145;28;19981;-75
2022/09/18 10:15:11;;;;;;;;;;;;;;;11.73;84.98;100589.91;4959023;28;19948;-76
2022/09/18 10:18:24;;;;;;;;;;;;;;;11.72;84.32;100588.25;4957999;28;19925;-73
2022/09/18 10:21:33;;;;;;;;;;;;;;;11.66;84.03;100575.47;4938885;28;20054;-73
2022/09/18 10:24:50;;;;;;;;;;;;;;;11.74;84.35;100575.03;4938915;28;20393;-76
2022/09/18 10:27:56;;;;;;;;;;;;;;;11.67;83.77;100576.31;4951248;28;20263;-76
2022/09/18 10:31:04;;;;;;;;;;;;;;;11.83;83.09;100572.75;4950582;28;19973;-76
2022/09/18 10:34:29;;;;;;;;;;;;;;;11.88;83.16;100579.56;4957335;28;19995;-76
2022/09/18 10:37:34;;;;;;;;;;;;;;;12.05;82.37;100574.19;4958213;28;19976;-75
2022/09/18 10:40:44;;;;;;;;;;;;;;;12.26;81.53;100566.88;4958174;28;19960;-75
2022/09/18 10:43:53;;;;;;;;;;;;;;;12.38;80.83;100566.16;4960987;28;19973;-76
2022/09/18 10:47:03;;;;;;;;;;;;;;;12.16;80.87;100557.84;4977621;28;19921;-76
2022/09/18 10:50:10;;;;;;;;;;;;;;;12.14;80.07;100555.31;4939242;28;19960;-75
2022/09/18 10:53:41;;;;;;;;;;;;;;;12.34;80.51;100568.06;4956988;28;19928;-76
2022/09/18 10:57:24;;;;;;;;;;;;;;;12.18;78.90;100569.91;4957439;28;20288;-76
2022/09/18 11:00:28;;;;;;;;;;;;;;;12.13;78.87;100574.59;4956169;28;20458;-73
2022/09/18 11:03:40;;;;;;;;;;;;;;;12.30;76.86;100565.75;4971781;28;20360;-75
2022/09/18 11:06:50;;;;;;;;;;;;;;;12.32;78.00;100572.59;4977981;28;19944;-78
2022/09/18 11:10:06;;;;;;;;;;;;;;;12.29;75.61;100559.66;4977714;28;19920;-75
2022/09/18 11:13:17;;;;;;;;;;;;;;;12.59;75.90;100556.13;4977079;28;20328;-75
2022/09/18 11:16:34;;;;;;;;;;;;;;;12.65;75.57;100558.41;4976974;28;20101;-75
2022/09/18 11:19:38;;;;;;;;;;;;;;;12.56;74.74;100554.53;4980390;28;19976;-73
2022/09/18 11:23:25;;;;;;;;;;;;;;;12.28;74.25;100549.25;4992279;28;19920;-73
2022/09/18 11:26:31;;;;;;;;;;;;;;;12.37;74.95;100553.09;4991728;28;19964;-73
2022/09/18 11:29:41;;;;;;;;;;;;;;;12.44;74.41;100543.94;4980349;28;20527;-74
2022/09/18 11:32:52;;;;;;;;;;;;;;;12.42;74.60;100533.56;4941462;29;19941;-74
2022/09/18 11:35:59;;;;;;;;;;;;;;;12.53;73.89;100531.13;4952697;28;19921;-74
2022/09/18 11:39:11;;;;;;;;;;;;;;;12.47;75.08;100526.25;4960960;28;19961;-74
2022/09/18 11:42:16;;;;;;;;;;;;;;;12.71;75.99;100544.91;4961029;28;19925;-74
2022/09/18 11:45:41;;;;;;;;;;;;;;;12.45;74.31;100538.63;4965929;28;20435;-74
2022/09/18 11:48:50;;;;;;;;;;;;;;;12.60;75.10;100539.44;4981149;28;20380;-74
2022/09/18 11:51:57;;;;;;;;;;;;;;;12.48;75.53;100545.47;4980856;28;19929;-74
2022/09/18 11:55:11;;;;;;;;;;;;;;;12.52;74.21;100541.72;4980975;28;19940;-74
2022/09/18 11:58:31;;;;;;;;;;;;;;;12.69;75.08;100540.69;4993101;28;20001;-74
2022/09/18 12:01:39;;;;;;;;;;;;;;;12.77;74.57;100538.44;4941108;28;20284;-74
2022/09/18 12:05:02;;;;;;;;;;;;;;;12.65;74.70;100540.03;4953047;28;20022;-74
2022/09/18 12:08:19;;;;;;;;;;;;;;;12.84;74.76;100539.75;4963913;28;20499;-74
2022/09/18 12:11:29;;;;;;;;;;;;;;;12.69;74.04;100531.03;4963782;28;20001;-74
2022/09/18 12:14:39;;;;;;;;;;;;;;;12.69;73.50;100533.66;4981637;28;19924;-74
2022/09/18 12:17:58;;;;;;;;;;;;;;;12.73;74.83;100529.94;4965508;28;20224;-74
2022/09/18 12:21:08;;;;;;;;;;;;;;;12.84;73.08;100528.41;4972390;28;19965;-74
2022/09/18 12:24:13;;;;;;;;;;;;;;;12.83;72.95;100524.09;4960103;28;20060;-74
2022/09/18 12:27:37;;;;;;;;;;;;;;;12.72;72.00;100520.34;4959636;28;20388;-74
2022/09/18 12:30:53;;;;;;;;;;;;;;;12.81;72.23;100526.81;4961179;28;20174;-74
2022/09/18 12:34:09;;;;;;;;;;;;;;;12.88;71.77;100522.03;4992681;28;20335;-73
2022/09/18 12:37:34;;;;;;;;;;;;;;;12.82;70.92;100525.03;4994766;28;19959;-73
2022/09/18 12:41:09;;;;;;;;;;;;;;;13.03;71.44;100518.47;4995516;28;20332;-73
2022/09/18 12:44:16;;;;;;;;;;;;;;;13.23;69.71;100512.78;4995557;28;20355;-74
2022/09/18 12:47:33;;;;;;;;;;;;;;;13.13;69.62;100511.69;4995899;28;19924;-74
2022/09/18 12:51:09;;;;;;;;;;;;;;;13.11;70.02;100505.69;4995515;28;19960;-74
2022/09/18 12:54:26;;;;;;;;;;;;;;;13.28;69.79;100491.53;4983583;28;20341;-74
2022/09/18 12:57:34;;;;;;;;;;;;;;;13.16;69.11;100494.91;4995141;28;20336;-74
2022/09/18 13:00:39;;;;;;;;;;;;;;;13.04;68.29;100496.50;4995347;28;19920;-74
2022/09/18 13:03:43;;;;;;;;;;;;;;;13.10;69.71;100503.16;4995300;28;20024;-74
2022/09/18 13:06:52;;;;;;;;;;;;;;;13.21;69.54;100505.97;4995320;28;20419;-74
2022/09/18 13:10:14;;;;;;;;;;;;;;;13.08;68.89;100494.53;4995261;28;19967;-74
2022/09/18 13:13:37;;;;;;;;;;;;;;;12.99;68.08;100519.59;4995097;28;19972;-74
2022/09/18 13:16:53;;;;;;;;;;;;;;;12.99;68.23;100502.06;4995133;28;19925;-74
2022/09/18 13:20:16;;;;;;;;;;;;;;;13.05;69.36;100511.34;4995165;28;20324;-74
2022/09/18 13:23:30;;;;;;;;;;;;;;;12.96;69.69;100512.75;4994940;28;19979;-74
2022/09/18 13:26:36;;;;;;;;;;;;;;;12.92;69.88;100515.66;4994683;28;20406;-74
2022/09/18 13:29:51;;;;;;;;;;;;;;;12.78;70.62;100522.59;4995140;28;19924;-74
2022/09/18 13:32:56;;;;;;;;;;;;;;;12.72;71.81;100516.88;4994665;28;19925;-74
2022/09/18 13:36:00;;;;;;;;;;;;;;;12.76;70.65;100516.63;4994885;28;20378;-74
2022/09/18 13:39:36;;;;;;;;;;;;;;;12.78;71.75;100512.09;4993820;28;20288;-74
2022/09/18 13:42:40;;;;;;;;;;;;;;;12.82;72.58;100519.78;4982677;28;19920;-74
2022/09/18 13:45:46;;;;;;;;;;;;;;;12.71;72.85;100516.06;4994737;28;19920;-74
2022/09/18 13:48:54;;;;;;;;;;;;;;;12.79;72.70;100511.19;4979070;28;20588;-74
2022/09/18 13:52:17;;;;;;;;;;;;;;;12.49;70.85;100515.66;4971006;28;20075;-74
2022/09/18 13:55:25;;;;;;;;;;;;;;;12.46;72.63;100523.72;4990028;28;20434;-74
2022/09/18 13:58:35;;;;;;;;;;;;;;;12.47;73.01;100520.16;4985007;28;20008;-74
2022/09/18 14:01:38;;;;;;;;;;;;;;;12.23;73.07;100514.59;4970653;28;19976;-74
2022/09/18 14:04:48;;;;;;;;;;;;;;;12.29;72.51;100512.47;4970950;28;19929;-74
2022/09/18 14:07:59;;;;;;;;;;;;;;;12.30;73.52;100514.13;4951900;28;19921;-74
2022/09/18 14:11:09;;;;;;;;;;;;;;;12.34;72.30;100507.78;4951530;28;19992;-74
2022/09/18 14:14:19;;;;;;;;;;;;;;;12.31;73.46;100500.09;4939568;28;19968;-74
2022/09/18 14:17:24;;;;;;;;;;;;;;;12.60;72.41;100510.59;4980725;28;19920;-74
2022/09/18 14:20:28;;;;;;;;;;;;;;;12.49;74.33;100502.56;4991586;28;19983;-74
2022/09/18 14:23:35;;;;;;;;;;;;;;;12.47;74.10;100505.25;4991486;28;19952;-75
2022/09/18 14:26:38;;;;;;;;;;;;;;;12.47;73.97;100499.16;4975567;28;19988;-74
2022/09/18 14:29:44;;;;;;;;;;;;;;;12.41;74.36;100495.16;4971674;28;20038;-74
2022/09/18 14:33:04;;;;;;;;;;;;;;;12.46;74.94;100495.72;4980799;28;19920;-74
2022/09/18 14:36:07;;;;;;;;;;;;;;;12.40;73.96;100482.97;4971573;28;19921;-74
2022/09/18 14:39:29;;;;;;;;;;;;;;;12.46;73.83;100473.91;4969271;28;20469;-74
2022/09/18 14:42:33;;;;;;;;;;;;;;;12.44;72.46;100487.09;4970584;28;19936;-74
2022/09/18 14:45:37;;;;;;;;;;;;;;;12.38;73.68;100481.38;4970604;28;20078;-74
2022/09/18 14:48:41;;;;;;;;;;;;;;;12.20;72.51;100475.47;4970173;28;19984;-74
2022/09/18 14:51:44;;;;;;;;;;;;;;;12.36;73.81;100459.66;4968918;28;19965;-74
2022/09/18 14:54:49;;;;;;;;;;;;;;;12.19;72.24;100458.03;4957413;28;19942;-74
2022/09/18 14:57:55;;;;;;;;;;;;;;;12.18;72.91;100446.72;4973482;28;20397;-75
2022/09/18 15:01:00;;;;;;;;;;;;;;;12.37;73.28;100451.69;4987539;28;19920;-74
2022/09/18 15:04:05;;;;;;;;;;;;;;;12.47;71.62;100458.06;4990532;28;19928;-74
2022/09/18 15:07:19;;;;;;;;;;;;;;;12.46;72.49;100445.88;4990925;28;19968;-74
2022/09/18 15:10:24;;;;;;;;;;;;;;;12.19;72.59;100450.16;4978392;28;19920;-75
2022/09/18 15:13:31;;;;;;;;;;;;;;;12.10;73.02;100455.03;4990436;28;19928;-75
2022/09/18 15:16:35;;;;;;;;;;;;;;;12.21;74.26;100461.41;4990253;28;19920;-74
2022/09/18 15:19:54;;;;;;;;;;;;;;;12.27;74.82;100456.66;4978167;28;19961;-74
2022/09/18 15:23:17;;;;;;;;;;;;;;;12.47;75.55;100446.72;4966817;28;20347;-74
2022/09/18 15:26:28;;;;;;;;;;;;;;;12.37;75.16;100445.59;4946065;28;19932;-74
2022/09/18 15:29:42;;;;;;;;;;;;;;;12.12;75.99;100451.47;4972497;28;19921;-75
2022/09/18 15:32:52;;;;;;;;;;;;;;;12.44;77.14;100457.41;4963368;28;19921;-75
2022/09/18 15:35:57;;;;;;;;;;;;;;;11.98;75.57;100450.53;4988854;28;19921;-74
2022/09/18 15:39:04;;;;;;;;;;;;;;;12.00;77.38;100455.69;4982341;28;20297;-75
2022/09/18 15:42:29;;;;;;;;;;;;;;;12.10;77.52;100454.22;4969629;28;19964;-74
2022/09/18 15:45:35;;;;;;;;;;;;;;;12.12;76.88;100446.25;4957187;28;20057;-74
2022/09/18 15:48:38;;;;;;;;;;;;;;;12.00;77.74;100453.06;4969839;28;19964;-74
2022/09/18 15:51:43;;;;;;;;;;;;;;;12.17;79.10;100447.66;4957591;28;19920;-75
2022/09/18 15:55:01;;;;;;;;;;;;;;;12.36;79.55;100449.19;4968774;28;19949;-74
2022/09/18 15:58:18;;;;;;;;;;;;;;;12.34;80.05;100442.22;4973701;28;19921;-74
2022/09/18 16:01:33;;;;;;;;;;;;;;;12.46;79.78;100451.13;4987536;28;19921;-74
2022/09/18 16:04:43;;;;;;;;;;;;;;;12.05;81.71;100456.25;4991299;28;20041;-75
2022/09/18 16:07:56;;;;;;;;;;;;;;;11.96;79.59;100457.63;4972726;28;19936;-74
2022/09/18 16:11:00;;;;;;;;;;;;;;;12.21;80.89;100457.00;4971982;28;19925;-75
2022/09/18 16:14:23;;;;;;;;;;;;;;;12.18;80.87;100456.34;4989504;28;20285;-75
2022/09/18 16:17:28;;;;;;;;;;;;;;;11.78;79.62;100459.53;4952613;28;19936;-74
2022/09/18 16:20:38;;;;;;;;;;;;;;;11.90;80.49;100458.03;4955800;28;19968;-74
2022/09/18 16:24:38;;;;;;;;;;;;;;;11.70;80.41;100450.44;4973170;28;20412;-74
2022/09/18 16:27:48;;;;;;;;;;;;;;;11.81;80.52;100438.41;4969332;28;19937;-75